createdAt,value
2018-06-03T00:00:06.374Z,101504.85
2018-06-03T00:02:34.636Z,101502.09
2018-06-03T00:05:02.940Z,101509.36
2018-06-03T00:07:31.211Z,101501.22
2018-06-03T00:10:00.231Z,101499.13
2018-06-03T00:12:28.518Z,101506.31
2018-06-03T00:14:56.799Z,101503.89
2018-06-03T00:17:25.914Z,101507.15
2018-06-03T00:19:55.030Z,101505.08
2018-06-03T00:22:38.157Z,101503.42
2018-06-03T00:25:07.214Z,101500.78
2018-06-03T00:27:35.569Z,101502.56
2018-06-03T00:30:04.587Z,101498.52
2018-06-03T00:32:32.973Z,101498.52
2018-06-03T00:35:01.241Z,101498.50
2018-06-03T00:37:30.269Z,101494.46
2018-06-03T00:39:58.562Z,101491.72
2018-06-03T00:42:26.814Z,101486.51
2018-06-03T00:44:55.854Z,101487.83
2018-06-03T00:47:24.119Z,101493.41
2018-06-03T00:49:53.162Z,101492.09
2018-06-03T00:52:21.466Z,101488.55
2018-06-03T00:54:49.752Z,101492.47
2018-06-03T00:57:18.026Z,101488.26
2018-06-03T00:59:46.302Z,101489.95
2018-06-03T01:02:15.353Z,101492.58
2018-06-03T01:04:43.626Z,101488.66
2018-06-03T01:07:11.899Z,101480.27
2018-06-03T01:09:40.184Z,101480.24
2018-06-03T01:12:09.330Z,101480.70
2018-06-03T01:14:37.703Z,101482.39
2018-06-03T01:17:06.098Z,101480.16
2018-06-03T01:19:34.359Z,101478.73
2018-06-03T01:22:03.422Z,101480.94
2018-06-03T01:24:31.716Z,101474.67
2018-06-03T01:26:59.983Z,101473.16
2018-06-03T01:29:28.268Z,101476.56
2018-06-03T01:31:56.558Z,101479.09
2018-06-03T01:34:24.821Z,101476.20
2018-06-03T01:36:53.120Z,101479.27
2018-06-03T01:39:21.416Z,101478.52
2018-06-03T01:41:49.691Z,101486.50
2018-06-03T01:44:17.977Z,101476.90
2018-06-03T01:46:47.022Z,101476.47
2018-06-03T01:49:15.295Z,101475.38
2018-06-03T01:51:43.567Z,101475.34
2018-06-03T01:54:11.864Z,101467.98
2018-06-03T01:56:40.892Z,101474.17
2018-06-03T01:59:09.155Z,101469.39
2018-06-03T02:01:38.214Z,101467.69
2018-06-03T02:04:07.390Z,101466.98
2018-06-03T02:06:35.712Z,101469.72
2018-06-03T02:09:03.988Z,101465.81
2018-06-03T02:11:32.242Z,101467.13
2018-06-03T02:14:01.263Z,101466.33
2018-06-03T02:16:29.602Z,101456.67
2018-06-03T02:18:57.885Z,101462.05
2018-06-03T02:21:26.149Z,101464.23
2018-06-03T02:23:54.526Z,101462.83
2018-06-03T02:26:22.830Z,101456.77
2018-06-03T02:28:51.233Z,101456.38
2018-06-03T02:31:19.541Z,101455.04
2018-06-03T02:33:47.842Z,101455.06
2018-06-03T02:36:16.108Z,101451.17
2018-06-03T02:38:44.380Z,101450.85
2018-06-03T02:41:12.668Z,101455.38
2018-06-03T02:43:40.941Z,101449.64
2018-06-03T02:46:09.994Z,101449.30
2018-06-03T02:48:39.260Z,101447.25
2018-06-03T02:51:08.911Z,101449.88
2018-06-03T02:53:37.259Z,101451.17
2018-06-03T02:56:06.297Z,101451.88
2018-06-03T02:58:35.119Z,101450.10
2018-06-03T03:01:04.821Z,101452.41
2018-06-03T03:03:33.471Z,101453.16
2018-06-03T03:06:01.911Z,101451.41
2018-06-03T03:08:30.564Z,101448.26
2018-06-03T03:10:59.058Z,101455.33
2018-06-03T03:13:27.422Z,101456.70
2018-06-03T03:15:55.727Z,101450.63
2018-06-03T03:18:24.634Z,101452.92
2018-06-03T03:20:53.067Z,101447.33
2018-06-03T03:23:22.430Z,101447.47
2018-06-03T03:25:52.904Z,101448.54
2018-06-03T03:28:22.848Z,101447.90
2018-06-03T03:30:52.004Z,101447.55
2018-06-03T03:33:22.317Z,101448.57
2018-06-03T03:35:52.072Z,101458.28
2018-06-03T03:38:22.553Z,101453.03
2018-06-03T03:40:52.828Z,101454.44
2018-06-03T03:43:22.513Z,101452.72
2018-06-03T03:45:52.453Z,101452.28
2018-06-03T03:48:21.633Z,101450.16
2018-06-03T03:50:50.574Z,101443.18
2018-06-03T03:53:20.810Z,101445.92
2018-06-03T03:55:50.495Z,101447.69
2018-06-03T03:58:19.998Z,101450.73
2018-06-03T04:00:49.248Z,101452.26
2018-06-03T04:03:17.569Z,101456.02
2018-06-03T04:05:46.061Z,101451.20
2018-06-03T04:08:14.460Z,101453.28
2018-06-03T04:10:43.595Z,101457.37
2018-06-03T04:13:11.955Z,101447.67
2018-06-03T04:15:40.198Z,101447.13
2018-06-03T04:18:08.504Z,101448.70
2018-06-03T04:20:36.812Z,101447.33
2018-06-03T04:23:05.109Z,101455.14
2018-06-03T04:25:34.446Z,101443.41
2018-06-03T04:28:02.701Z,101445.22
2018-06-03T04:30:30.985Z,101444.04
2018-06-03T04:32:59.236Z,101453.59
2018-06-03T04:35:27.604Z,101449.62
2018-06-03T04:37:55.890Z,101452.11
2018-06-03T04:40:24.313Z,101448.22
2018-06-03T04:42:52.628Z,101455.15
2018-06-03T04:45:20.925Z,101457.56
2018-06-03T04:47:50.905Z,101457.59
2018-06-03T04:50:19.668Z,101457.56
2018-06-03T04:52:49.264Z,101458.36
2018-06-03T04:55:17.574Z,101463.90
2018-06-03T04:57:45.845Z,101465.88
2018-06-03T05:00:14.145Z,101468.54
2018-06-03T05:02:42.474Z,101472.06
2018-06-03T05:05:11.504Z,101471.69
2018-06-03T05:07:39.972Z,101467.30
2018-06-03T05:10:09.144Z,101476.81
2018-06-03T05:12:37.409Z,101477.38
2018-06-03T05:15:05.669Z,101473.55
2018-06-03T05:17:33.928Z,101476.93
2018-06-03T05:20:02.189Z,101481.00
2018-06-03T05:22:30.466Z,101476.64
2018-06-03T05:24:58.725Z,101483.64
2018-06-03T05:27:26.998Z,101483.32
2018-06-03T05:29:56.051Z,101493.44
2018-06-03T05:35:21.565Z,101493.89
2018-06-03T05:37:50.056Z,101495.75
2018-06-03T05:40:18.483Z,101496.18
2018-06-03T05:42:46.760Z,101490.61
2018-06-03T05:45:15.082Z,101489.77
2018-06-03T05:47:43.350Z,101493.94
2018-06-03T05:50:11.625Z,101488.70
2018-06-03T05:52:40.672Z,101490.58
2018-06-03T05:55:08.949Z,101490.14
2018-06-03T05:57:37.238Z,101488.97
2018-06-03T06:00:05.504Z,101489.98
2018-06-03T06:02:34.542Z,101488.84
2018-06-03T06:05:02.819Z,101499.23
2018-06-03T06:07:31.109Z,101496.67
2018-06-03T06:09:59.377Z,101495.83
2018-06-03T06:12:28.428Z,101497.85
2018-06-03T06:14:56.701Z,101502.83
2018-06-03T06:17:24.987Z,101510.09
2018-06-03T06:19:53.258Z,101511.75
2018-06-03T06:22:22.293Z,101512.91
2018-06-03T06:24:50.631Z,101512.77
2018-06-03T06:27:18.935Z,101513.37
2018-06-03T06:29:47.979Z,101507.15
2018-06-03T06:32:16.238Z,101506.09
2018-06-03T06:34:46.042Z,101504.75
2018-06-03T06:37:14.282Z,101502.33
2018-06-03T06:39:42.551Z,101499.17
2018-06-03T06:42:11.586Z,101506.91
2018-06-03T06:44:39.890Z,101504.92
2018-06-03T06:47:08.149Z,101505.33
2018-06-03T06:49:36.443Z,101505.54
2018-06-03T06:52:04.712Z,101506.48
2018-06-03T06:54:33.743Z,101509.77
2018-06-03T06:57:02.029Z,101515.71
2018-06-03T06:59:30.330Z,101512.78
2018-06-03T07:01:58.584Z,101518.40
2018-06-03T07:04:26.871Z,101528.70
2018-06-03T07:06:55.133Z,101523.27
2018-06-03T07:09:23.467Z,101527.43
2018-06-03T07:11:51.766Z,101529.58
2018-06-03T07:14:20.816Z,101531.54
2018-06-03T07:16:49.139Z,101531.27
2018-06-03T07:19:17.407Z,101531.83
2018-06-03T07:21:45.675Z,101530.89
2018-06-03T07:24:13.973Z,101528.61
2018-06-03T07:26:42.292Z,101516.08
2018-06-03T07:29:10.642Z,101518.34
2018-06-03T07:31:38.910Z,101516.06
2018-06-03T07:34:07.943Z,101518.44
2018-06-03T07:36:36.229Z,101521.97
2018-06-03T07:39:04.775Z,101520.41
2018-06-03T07:41:33.109Z,101523.69
2018-06-03T07:44:02.170Z,101525.42
2018-06-03T07:46:30.445Z,101525.87
2018-06-03T07:48:58.728Z,101525.77
2018-06-03T07:51:27.003Z,101522.06
2018-06-03T07:53:55.304Z,101524.95
2018-06-03T07:56:23.564Z,101527.25
2018-06-03T07:58:51.849Z,101519.44
2018-06-03T08:01:20.907Z,101519.09
2018-06-03T08:03:49.213Z,101518.30
2018-06-03T08:06:17.472Z,101518.21
2018-06-03T08:08:45.746Z,101511.16
2018-06-03T08:11:14.018Z,101513.92
2018-06-03T08:13:43.139Z,101519.21
2018-06-03T08:16:11.412Z,101515.59
2018-06-03T08:18:40.061Z,101516.92
2018-06-03T08:21:08.358Z,101516.23
2018-06-03T08:23:36.627Z,101508.44
2018-06-03T08:26:04.922Z,101502.67
2018-06-03T08:28:33.231Z,101503.19
2018-06-03T08:31:01.571Z,101505.53
2018-06-03T08:33:30.641Z,101498.89
2018-06-03T08:35:58.907Z,101502.04
2018-06-03T08:38:27.171Z,101497.82
2018-06-03T08:40:56.226Z,101500.30
2018-06-03T08:43:24.636Z,101500.65
2018-06-03T08:45:52.959Z,101495.93
2018-06-03T08:48:21.288Z,101502.21
2018-06-03T08:50:49.585Z,101498.34
2018-06-03T08:53:17.852Z,101499.05
2018-06-03T08:55:46.182Z,101500.22
2018-06-03T08:58:14.440Z,101508.94
2018-06-03T09:00:43.340Z,101501.81
2018-06-03T09:03:11.603Z,101501.05
2018-06-03T09:05:39.882Z,101507.78
2018-06-03T09:08:08.900Z,101500.25
2018-06-03T09:10:37.217Z,101503.81
2018-06-03T09:13:05.498Z,101500.57
2018-06-03T09:15:33.743Z,101501.76
2018-06-03T09:18:02.806Z,101499.73
2018-06-03T09:20:31.071Z,101499.41
2018-06-03T09:23:00.290Z,101493.04
2018-06-03T09:25:29.223Z,101484.70
2018-06-03T09:27:58.442Z,101484.66
2018-06-03T09:30:29.060Z,101485.65
2018-06-03T09:32:57.525Z,101484.96
2018-06-03T09:35:25.862Z,101486.09
2018-06-03T09:37:54.191Z,101485.14
2018-06-03T09:40:22.532Z,101489.11
2018-06-03T09:42:50.827Z,101484.05
2018-06-03T09:45:19.114Z,101484.55
2018-06-03T09:47:47.363Z,101481.85
2018-06-03T09:50:15.628Z,101482.41
2018-06-03T09:52:43.913Z,101478.31
2018-06-03T09:55:12.196Z,101474.13
2018-06-03T09:57:40.470Z,101468.94
2018-06-03T10:00:08.739Z,101469.62
2018-06-03T10:02:37.004Z,101472.29
2018-06-03T10:05:06.028Z,101469.90
2018-06-03T10:07:34.303Z,101475.90
2018-06-03T10:10:03.334Z,101473.66
2018-06-03T10:12:32.185Z,101470.97
2018-06-03T10:15:01.404Z,101474.25
2018-06-03T10:17:30.216Z,101475.95
2018-06-03T10:19:59.345Z,101477.73
2018-06-03T10:22:28.402Z,101478.23
2018-06-03T10:24:56.718Z,101469.38
2018-06-03T10:27:24.995Z,101475.39
2018-06-03T10:29:54.351Z,101464.92
2018-06-03T10:32:22.721Z,101466.37
2018-06-03T10:34:51.501Z,101471.63
2018-06-03T10:37:25.700Z,101466.52
2018-06-03T10:39:55.465Z,101469.44
2018-06-03T10:42:23.808Z,101459.38
2018-06-03T10:44:52.121Z,101459.70
2018-06-03T10:47:20.378Z,101458.52
2018-06-03T10:49:48.683Z,101466.25
2018-06-03T10:52:16.950Z,101467.14
2018-06-03T10:54:45.983Z,101459.38
2018-06-03T10:57:15.751Z,101452.72
2018-06-03T10:59:44.032Z,101454.64
2018-06-03T11:02:12.300Z,101456.27
2018-06-03T11:04:41.455Z,101445.24
2018-06-03T11:07:12.732Z,101443.35
2018-06-03T11:09:45.856Z,101443.69
2018-06-03T11:12:14.529Z,101440.64
2018-06-03T11:14:43.730Z,101437.27
2018-06-03T11:17:13.096Z,101434.95
2018-06-03T11:19:43.008Z,101427.50
2018-06-03T11:22:11.563Z,101429.75
2018-06-03T11:24:40.641Z,101429.89
2018-06-03T11:27:11.226Z,101428.45
2018-06-03T11:29:48.112Z,101418.88
2018-06-03T11:32:19.504Z,101422.61
2018-06-03T11:35:31.007Z,101418.75
2018-06-03T11:38:00.931Z,101420.07
2018-06-03T11:40:31.271Z,101425.08
2018-06-03T11:43:00.914Z,101426.30
2018-06-03T11:45:30.809Z,101421.11
2018-06-03T11:48:01.033Z,101422.03
2018-06-03T11:50:30.755Z,101426.05
2018-06-03T11:53:00.315Z,101428.56
2018-06-03T11:55:30.372Z,101423.19
2018-06-03T12:00:11.397Z,101425.22
2018-06-03T12:02:42.240Z,101426.02
2018-06-03T12:05:14.687Z,101426.52
2018-06-03T12:07:45.471Z,101425.33
2018-06-03T12:10:19.895Z,101422.05
2018-06-03T12:12:51.631Z,101418.92
2018-06-03T12:15:21.927Z,101418.69
2018-06-03T12:17:54.565Z,101416.64
2018-06-03T12:20:27.405Z,101413.19
2018-06-03T12:22:58.903Z,101413.36
2018-06-03T12:25:29.547Z,101409.38
2018-06-03T12:27:58.872Z,101410.02
2018-06-03T12:30:28.225Z,101404.13
2018-06-03T12:32:57.580Z,101402.16
2018-06-03T12:35:27.148Z,101404.02
2018-06-03T12:37:56.472Z,101399.73
2018-06-03T12:40:25.802Z,101401.95
2018-06-03T12:42:55.204Z,101398.02
2018-06-03T12:45:24.599Z,101397.05
2018-06-03T12:47:54.892Z,101392.11
2018-06-03T12:50:24.321Z,101388.16
2018-06-03T12:52:53.683Z,101385.69
2018-06-03T12:55:23.135Z,101385.79
2018-06-03T12:57:52.574Z,101380.27
2018-06-03T13:00:21.933Z,101378.83
2018-06-03T13:02:51.277Z,101379.32
2018-06-03T13:05:20.729Z,101380.11
2018-06-03T13:07:50.110Z,101375.55
2018-06-03T13:10:19.517Z,101385.44
2018-06-03T13:12:48.821Z,101381.38
2018-06-03T13:15:18.176Z,101380.12
2018-06-03T13:17:47.632Z,101382.02
2018-06-03T13:20:16.910Z,101380.78
2018-06-03T13:22:46.498Z,101382.51
2018-06-03T13:25:15.809Z,101374.27
2018-06-03T13:27:45.136Z,101377.50
2018-06-03T13:30:14.459Z,101375.48
2018-06-03T13:32:43.812Z,101369.67
2018-06-03T13:35:15.967Z,101366.91
2018-06-03T13:37:48.321Z,101358.20
2018-06-03T13:40:20.596Z,101354.88
2018-06-03T13:42:52.296Z,101352.84
2018-06-03T13:45:25.261Z,101350.25
2018-06-03T13:47:55.394Z,101343.56
2018-06-03T13:50:25.484Z,101338.05
2018-06-03T13:52:55.520Z,101331.00
2018-06-03T13:55:24.826Z,101330.50
2018-06-03T13:57:54.242Z,101324.33
2018-06-03T14:00:23.511Z,101323.08
2018-06-03T14:02:52.787Z,101316.66
2018-06-03T14:05:23.866Z,101312.33
2018-06-03T14:07:53.685Z,101302.75
2018-06-03T14:10:22.980Z,101309.70
2018-06-03T14:12:52.357Z,101313.89
2018-06-03T14:15:21.797Z,101305.05
2018-06-03T14:17:51.170Z,101305.71
2018-06-03T14:20:20.478Z,101296.25
2018-06-03T14:22:54.230Z,101297.96
2018-06-03T14:25:23.540Z,101291.78
2018-06-03T14:27:52.797Z,101289.41
2018-06-03T14:30:22.145Z,101287.02
2018-06-03T14:32:51.437Z,101282.72
2018-06-03T14:35:20.780Z,101284.89
2018-06-03T14:37:50.072Z,101276.80
2018-06-03T14:40:19.695Z,101277.98
2018-06-03T14:42:49.169Z,101271.17
2018-06-03T14:45:18.633Z,101268.92
2018-06-03T14:47:47.928Z,101261.81
2018-06-03T14:50:17.416Z,101255.36
2018-06-03T14:52:46.811Z,101250.97
2018-06-03T14:55:16.379Z,101251.05
2018-06-03T14:57:46.069Z,101253.98
2018-06-03T15:00:15.527Z,101248.95
2018-06-03T15:02:45.162Z,101250.09
2018-06-03T15:05:15.231Z,101241.66
2018-06-03T15:07:45.449Z,101240.28
2018-06-03T15:10:15.330Z,101235.42
2018-06-03T15:12:45.486Z,101233.48
2018-06-03T15:15:15.116Z,101227.33
2018-06-03T15:17:44.896Z,101220.13
2018-06-03T15:20:14.925Z,101216.91
2018-06-03T15:22:44.624Z,101216.16
2018-06-03T15:25:14.367Z,101218.20
2018-06-03T15:27:44.015Z,101213.31
2018-06-03T15:30:15.981Z,101211.78
2018-06-03T15:32:45.631Z,101207.97
2018-06-03T15:35:16.438Z,101204.61
2018-06-03T15:37:47.678Z,101201.43
2018-06-03T15:40:17.809Z,101199.00
2018-06-03T15:42:47.639Z,101199.73
2018-06-03T15:45:17.492Z,101190.97
2018-06-03T15:47:47.270Z,101195.08
2018-06-03T15:50:17.241Z,101198.12
2018-06-03T15:52:53.440Z,101190.23
2018-06-03T15:55:23.014Z,101192.50
2018-06-03T15:57:52.521Z,101190.48
2018-06-03T16:00:22.004Z,101192.34
2018-06-03T16:02:51.769Z,101190.82
2018-06-03T16:05:21.249Z,101190.45
2018-06-03T16:07:50.746Z,101188.07
2018-06-03T16:10:20.255Z,101185.41
2018-06-03T16:12:49.860Z,101183.77
2018-06-03T16:15:19.356Z,101178.95
2018-06-03T16:17:48.769Z,101172.70
2018-06-03T16:20:18.331Z,101174.34
2018-06-03T16:22:47.815Z,101179.72
2018-06-03T16:25:17.085Z,101163.46
2018-06-03T16:27:46.658Z,101160.34
2018-06-03T16:30:16.183Z,101165.30
2018-06-03T16:32:45.997Z,101166.66
2018-06-03T16:35:15.797Z,101161.54
2018-06-03T16:37:46.498Z,101159.13
2018-06-03T16:40:16.986Z,101155.09
2018-06-03T16:42:46.632Z,101150.77
2018-06-03T16:45:16.369Z,101157.61
2018-06-03T16:47:46.128Z,101150.82
2018-06-03T16:50:15.875Z,101146.44
2018-06-03T16:52:45.510Z,101146.11
2018-06-03T16:55:18.851Z,101147.34
2018-06-03T16:57:48.429Z,101150.88
2018-06-03T17:00:18.302Z,101149.30
2018-06-03T17:02:47.751Z,101150.39
2018-06-03T17:05:17.249Z,101148.31
2018-06-03T17:07:50.380Z,101146.61
2018-06-03T17:10:19.763Z,101147.48
2018-06-03T17:12:49.133Z,101147.59
2018-06-03T17:15:18.608Z,101149.11
2018-06-03T17:17:47.990Z,101137.00
2018-06-03T17:20:17.538Z,101138.98
2018-06-03T17:22:46.888Z,101134.03
2018-06-03T17:25:16.251Z,101136.20
2018-06-03T17:27:46.581Z,101138.98
2018-06-03T17:30:15.845Z,101138.23
2018-06-03T17:32:45.247Z,101133.38
2018-06-03T17:35:14.660Z,101135.68
2018-06-03T17:37:44.057Z,101133.76
2018-06-03T17:40:13.505Z,101128.93
2018-06-03T17:42:42.868Z,101131.70
2018-06-03T17:45:12.283Z,101132.41
2018-06-03T17:47:41.788Z,101132.88
2018-06-03T17:50:11.315Z,101129.61
2018-06-03T17:52:40.847Z,101128.18
2018-06-03T17:55:10.620Z,101126.70
2018-06-03T17:57:40.010Z,101126.36
2018-06-03T18:00:09.532Z,101120.91
2018-06-03T18:02:39.018Z,101114.38
2018-06-03T18:05:08.430Z,101113.75
2018-06-03T18:07:37.804Z,101118.06
2018-06-03T18:10:07.172Z,101122.05
2018-06-03T18:12:36.489Z,101112.59
2018-06-03T18:15:05.586Z,101113.83
2018-06-03T18:17:36.378Z,101119.27
2018-06-03T18:20:05.964Z,101119.61
2018-06-03T18:22:35.288Z,101119.49
2018-06-03T18:25:04.635Z,101122.12
2018-06-03T18:27:33.926Z,101112.82
2018-06-03T18:30:03.215Z,101119.20
2018-06-03T18:32:32.508Z,101116.20
2018-06-03T18:35:01.864Z,101114.84
2018-06-03T18:37:31.170Z,101125.47
2018-06-03T18:40:00.479Z,101120.16
2018-06-03T18:42:29.840Z,101114.72
2018-06-03T18:44:59.191Z,101116.27
2018-06-03T18:47:28.480Z,101112.97
2018-06-03T18:49:57.760Z,101115.24
2018-06-03T18:52:28.044Z,101117.64
2018-06-03T18:54:57.402Z,101115.53
2018-06-03T18:57:26.719Z,101120.30
2018-06-03T18:59:55.997Z,101116.19
2018-06-03T19:02:25.359Z,101113.27
2018-06-03T19:04:54.624Z,101114.94
2018-06-03T19:07:24.044Z,101113.73
2018-06-03T19:09:53.367Z,101115.80
2018-06-03T19:12:22.919Z,101116.86
2018-06-03T19:14:52.225Z,101113.73
2018-06-03T19:17:21.540Z,101115.30
2018-06-03T19:19:50.967Z,101113.41
2018-06-03T19:22:20.363Z,101113.36
2018-06-03T19:24:49.742Z,101115.41
2018-06-03T19:27:19.199Z,101119.21
2018-06-03T19:29:48.559Z,101118.08
2018-06-03T19:32:18.062Z,101116.39
2018-06-03T19:34:47.565Z,101122.64
2018-06-03T19:37:16.968Z,101122.17
2018-06-03T19:39:46.193Z,101135.76
2018-06-03T19:42:15.719Z,101132.76
2018-06-03T19:44:45.032Z,101135.37
2018-06-03T19:47:14.782Z,101132.78
2018-06-03T19:52:25.220Z,101131.30
2018-06-03T19:54:54.619Z,101129.86
2018-06-03T19:57:24.001Z,101134.59
2018-06-03T19:59:53.437Z,101141.64
2018-06-03T20:02:22.728Z,101142.63
2018-06-03T20:04:52.237Z,101145.13
2018-06-03T20:07:21.766Z,101135.07
2018-06-03T20:09:51.314Z,101139.67
2018-06-03T20:12:20.864Z,101146.33
2018-06-03T20:14:50.469Z,101145.36
2018-06-03T20:17:19.864Z,101135.31
2018-06-03T20:19:49.261Z,101137.88
2018-06-03T20:22:18.689Z,101135.51
2018-06-03T20:24:48.451Z,101130.98
2018-06-03T20:27:17.763Z,101130.05
2018-06-03T20:29:47.069Z,101123.58
2018-06-03T20:32:16.916Z,101130.20
2018-06-03T20:34:46.313Z,101130.81
2018-06-03T20:37:15.871Z,101128.98
2018-06-03T20:39:45.330Z,101130.65
2018-06-03T20:42:14.913Z,101128.14
2018-06-03T20:44:44.387Z,101133.16
2018-06-03T20:47:13.839Z,101127.34
2018-06-03T20:49:43.276Z,101130.92
2018-06-03T20:52:12.896Z,101136.62
2018-06-03T20:54:42.222Z,101133.47
2018-06-03T20:57:11.581Z,101135.82
2018-06-03T20:59:41.262Z,101140.39
2018-06-03T21:02:10.757Z,101137.73
2018-06-03T21:04:40.146Z,101141.80
2018-06-03T21:07:09.672Z,101141.92
2018-06-03T21:09:39.061Z,101141.77
2018-06-03T21:12:08.542Z,101140.99
2018-06-03T21:14:38.996Z,101133.36
2018-06-03T21:17:08.356Z,101141.02
2018-06-03T21:19:37.687Z,101143.27
2018-06-03T21:22:06.975Z,101142.63
2018-06-03T21:24:37.271Z,101137.42
2018-06-03T21:27:06.518Z,101140.27
2018-06-03T21:29:35.888Z,101142.71
2018-06-03T21:32:05.190Z,101144.61
2018-06-03T21:34:34.482Z,101143.50
2018-06-03T21:37:03.803Z,101141.42
2018-06-03T21:39:33.241Z,101137.45
2018-06-03T21:42:02.547Z,101137.06
2018-06-03T21:44:31.891Z,101126.77
2018-06-03T21:47:01.913Z,101126.89
2018-06-03T21:49:31.216Z,101130.74
2018-06-03T21:52:00.359Z,101130.28
2018-06-03T21:54:33.501Z,101127.25
2018-06-03T21:57:02.996Z,101129.98
2018-06-03T21:59:32.372Z,101131.23
2018-06-03T22:02:01.677Z,101127.34
2018-06-03T22:04:30.960Z,101122.16
2018-06-03T22:07:00.274Z,101120.73
2018-06-03T22:09:29.626Z,101116.41
2018-06-03T22:11:58.887Z,101119.39
2018-06-03T22:14:37.898Z,101115.31
2018-06-03T22:17:33.093Z,101120.02
2018-06-03T22:20:05.919Z,101116.98
2018-06-03T22:22:35.232Z,101114.55
2018-06-03T22:25:04.656Z,101111.62
2018-06-03T22:27:34.046Z,101113.02
2018-06-03T22:30:03.579Z,101110.09
2018-06-03T22:32:35.030Z,101110.16
2018-06-03T22:35:04.150Z,101109.53
2018-06-03T22:37:33.466Z,101105.09
2018-06-03T22:40:02.903Z,101106.47
2018-06-03T22:42:32.274Z,101111.20
2018-06-03T22:45:01.562Z,101109.59
2018-06-03T22:48:09.961Z,101105.63
2018-06-03T22:50:40.212Z,101115.63
2018-06-03T22:53:09.678Z,101115.89
2018-06-03T22:55:42.209Z,101114.38
2018-06-03T22:58:11.817Z,101113.84
2018-06-03T23:00:41.427Z,101111.24
2018-06-03T23:03:14.962Z,101111.47
2018-06-03T23:05:44.451Z,101106.66
2018-06-03T23:08:13.907Z,101101.84
2018-06-03T23:10:43.351Z,101106.46
2018-06-03T23:13:12.789Z,101103.30
2018-06-03T23:15:42.222Z,101104.63
2018-06-03T23:18:11.750Z,101102.23
2018-06-03T23:32:28.830Z,101105.03
2018-06-03T23:34:58.120Z,101104.60
2018-06-03T23:37:27.459Z,101103.28
2018-06-03T23:39:56.885Z,101099.75
2018-06-03T23:42:26.172Z,101101.80
2018-06-03T23:44:55.447Z,101097.28
2018-06-03T23:47:24.873Z,101092.53
2018-06-03T23:49:54.249Z,101089.89
2018-06-03T23:52:23.504Z,101087.67
2018-06-03T23:54:52.874Z,101090.45
2018-06-03T23:57:22.102Z,101086.16
2018-06-03T23:59:51.377Z,101086.25
